createdAt,value
2022-10-28T00:01:24.506Z,9.34
2022-10-28T00:03:54.400Z,9.35
2022-10-28T00:06:27.174Z,9.34
2022-10-28T00:08:55.215Z,9.32
2022-10-28T00:11:25.467Z,9.30
2022-10-28T00:13:55.323Z,9.30
2022-10-28T00:16:29.191Z,9.30
2022-10-28T00:18:58.913Z,9.30
2022-10-28T00:21:29.937Z,9.32
2022-10-28T00:23:58.322Z,9.35
2022-10-28T00:26:28.713Z,9.39
2022-10-28T00:29:02.481Z,9.46
2022-10-28T00:31:31.856Z,9.48
2022-10-28T00:34:02.088Z,9.51
2022-10-28T00:36:32.251Z,9.50
2022-10-28T00:39:01.269Z,9.50
2022-10-28T00:41:38.824Z,9.54
2022-10-28T00:44:58.838Z,9.57
2022-10-28T00:47:29.326Z,9.58
2022-10-28T00:50:04.977Z,9.59
2022-10-28T00:52:34.077Z,9.56
2022-10-28T00:55:03.101Z,9.62
2022-10-28T00:57:34.074Z,9.62
2022-10-28T01:00:03.610Z,9.61
2022-10-28T01:02:34.423Z,9.61
2022-10-28T01:05:02.615Z,9.64
2022-10-28T01:07:30.455Z,9.64
2022-10-28T01:09:58.151Z,9.63
2022-10-28T01:12:52.294Z,9.61
2022-10-28T01:15:26.675Z,9.63
2022-10-28T01:18:04.370Z,9.58
2022-10-28T01:20:48.246Z,9.55
2022-10-28T01:23:57.860Z,9.54
2022-10-28T01:27:04.310Z,9.54
2022-10-28T01:29:46.934Z,9.51
2022-10-28T01:32:29.320Z,9.44
2022-10-28T01:35:06.480Z,9.33
2022-10-28T01:38:15.228Z,9.26
2022-10-28T01:40:55.267Z,9.22
2022-10-28T01:43:42.303Z,9.17
2022-10-28T01:46:19.402Z,9.10
2022-10-28T01:49:05.811Z,9.04
2022-10-28T01:51:54.524Z,8.99
2022-10-28T01:54:27.290Z,9.01
2022-10-28T01:56:58.044Z,8.93
2022-10-28T01:59:28.772Z,8.87
2022-10-28T02:01:57.216Z,8.77
2022-10-28T02:04:25.363Z,8.69
2022-10-28T02:06:58.258Z,8.61
2022-10-28T02:09:58.023Z,8.61
2022-10-28T02:12:35.133Z,8.60
2022-10-28T02:15:23.957Z,8.60
2022-10-28T02:18:16.636Z,8.57
2022-10-28T02:20:59.517Z,8.58
2022-10-28T02:23:46.629Z,8.61
2022-10-28T02:26:14.438Z,8.64
2022-10-28T02:29:00.905Z,8.61
2022-10-28T02:31:37.128Z,8.58
2022-10-28T02:34:12.063Z,8.49
2022-10-28T02:36:43.903Z,8.46
2022-10-28T02:39:12.024Z,8.45
2022-10-28T02:41:54.556Z,8.44
2022-10-28T02:44:28.901Z,8.39
2022-10-28T02:47:00.598Z,8.37
2022-10-28T02:49:31.908Z,8.28
2022-10-28T02:52:02.372Z,8.22
2022-10-28T02:54:38.226Z,8.22
2022-10-28T02:57:12.095Z,8.21
2022-10-28T02:59:40.862Z,8.13
2022-10-28T03:02:09.098Z,8.10
2022-10-28T03:04:36.926Z,8.12
2022-10-28T03:07:04.702Z,8.05
2022-10-28T03:09:32.948Z,7.99
2022-10-28T03:12:00.706Z,8.01
2022-10-28T03:14:28.441Z,8.05
2022-10-28T03:16:56.221Z,8.08
2022-10-28T03:19:24.998Z,8.12
2022-10-28T03:21:52.734Z,8.12
2022-10-28T03:24:20.639Z,8.14
2022-10-28T03:26:48.544Z,8.21
2022-10-28T03:29:16.262Z,8.22
2022-10-28T03:31:44.115Z,8.23
2022-10-28T03:34:11.871Z,8.20
2022-10-28T03:36:39.684Z,8.20
2022-10-28T03:39:07.552Z,8.20
2022-10-28T03:41:35.362Z,8.21
2022-10-28T03:44:03.432Z,8.22
2022-10-28T03:46:35.092Z,8.19
2022-10-28T03:49:04.149Z,8.18
2022-10-28T03:51:31.884Z,8.19
2022-10-28T03:53:59.707Z,8.16
2022-10-28T03:56:27.483Z,8.18
2022-10-28T03:58:55.267Z,8.20
2022-10-28T04:01:23.110Z,8.18
2022-10-28T04:03:51.035Z,8.16
2022-10-28T04:06:18.825Z,8.15
2022-10-28T04:08:46.643Z,8.14
2022-10-28T04:11:14.393Z,8.08
2022-10-28T04:13:42.278Z,8.04
2022-10-28T04:16:10.180Z,7.97
2022-10-28T04:18:38.014Z,7.95
2022-10-28T04:21:06.042Z,7.98
2022-10-28T04:23:34.136Z,7.87
2022-10-28T04:26:01.838Z,7.82
2022-10-28T04:28:29.651Z,7.81
2022-10-28T04:30:57.448Z,7.84
2022-10-28T04:33:25.223Z,7.85
2022-10-28T04:35:53.020Z,7.84
2022-10-28T04:38:20.999Z,7.79
2022-10-28T04:40:49.272Z,7.76
2022-10-28T04:43:17.280Z,7.72
2022-10-28T04:45:46.964Z,7.71
2022-10-28T04:48:15.111Z,7.71
2022-10-28T04:50:43.405Z,7.65
2022-10-28T04:53:12.634Z,7.66
2022-10-28T04:55:40.550Z,7.66
2022-10-28T04:58:09.736Z,7.65
2022-10-28T05:00:37.508Z,7.66
2022-10-28T05:03:05.453Z,7.71
2022-10-28T05:05:33.731Z,7.76
2022-10-28T05:08:01.983Z,7.75
2022-10-28T05:10:30.699Z,7.75
2022-10-28T05:12:58.599Z,7.72
2022-10-28T05:15:26.676Z,7.74
2022-10-28T05:17:55.164Z,7.77
2022-10-28T05:20:23.540Z,7.76
2022-10-28T05:22:54.910Z,7.76
2022-10-28T05:25:23.865Z,7.76
2022-10-28T05:27:52.033Z,7.72
2022-10-28T05:30:19.946Z,7.73
2022-10-28T05:32:49.324Z,7.72
2022-10-28T05:35:19.476Z,7.74
2022-10-28T05:37:47.326Z,7.73
2022-10-28T05:40:15.245Z,7.74
2022-10-28T05:42:43.517Z,7.74
2022-10-28T05:45:12.529Z,7.68
2022-10-28T05:47:48.428Z,7.67
2022-10-28T05:50:18.986Z,7.65
2022-10-28T05:52:48.476Z,7.70
2022-10-28T05:55:19.450Z,7.73
2022-10-28T05:57:48.575Z,7.79
2022-10-28T06:00:19.155Z,7.83
2022-10-28T06:02:46.992Z,7.84
2022-10-28T06:05:15.274Z,7.86
2022-10-28T06:07:42.995Z,7.86
2022-10-28T06:10:11.746Z,7.89
2022-10-28T06:12:38.778Z,7.92
2022-10-28T06:15:07.254Z,7.97
2022-10-28T06:17:35.086Z,7.96
2022-10-28T06:20:04.220Z,7.96
2022-10-28T06:22:32.156Z,7.98
2022-10-28T06:25:00.014Z,7.97
2022-10-28T06:27:29.620Z,8.01
2022-10-28T06:29:57.295Z,8.05
2022-10-28T06:32:25.162Z,8.09
2022-10-28T06:34:52.964Z,8.12
2022-10-28T06:37:20.646Z,8.20
2022-10-28T06:39:51.321Z,8.26
2022-10-28T06:42:19.332Z,8.34
2022-10-28T06:44:48.070Z,8.45
2022-10-28T06:47:17.997Z,8.55
2022-10-28T06:49:45.882Z,8.63
2022-10-28T06:52:13.729Z,8.66
2022-10-28T06:54:41.592Z,8.71
2022-10-28T06:57:10.592Z,8.78
2022-10-28T06:59:38.521Z,8.84
2022-10-28T07:02:12.184Z,8.93
2022-10-28T07:04:39.882Z,9.01
2022-10-28T07:07:07.980Z,9.09
2022-10-28T07:09:39.512Z,9.19
2022-10-28T07:12:07.793Z,9.30
2022-10-28T07:14:35.679Z,9.41
2022-10-28T07:17:04.006Z,9.53
2022-10-28T07:19:32.024Z,9.62
2022-10-28T07:21:59.954Z,9.78
2022-10-28T07:27:00.590Z,9.92
2022-10-28T07:29:28.394Z,9.97
2022-10-28T07:31:56.900Z,10.04
2022-10-28T07:34:27.140Z,10.10
2022-10-28T07:36:55.501Z,10.18
2022-10-28T07:39:23.606Z,10.22
2022-10-28T07:41:51.617Z,10.28
2022-10-28T07:44:19.356Z,10.36
2022-10-28T07:46:47.147Z,10.45
2022-10-28T07:49:14.965Z,10.54
2022-10-28T07:51:43.185Z,10.63
2022-10-28T07:54:11.054Z,10.71
2022-10-28T07:56:38.838Z,10.81
2022-10-28T07:59:06.675Z,10.89
2022-10-28T08:01:35.151Z,10.95
2022-10-28T08:04:03.087Z,11.01
2022-10-28T08:06:30.882Z,11.07
2022-10-28T08:08:58.590Z,11.15
2022-10-28T08:11:26.394Z,11.23
2022-10-28T08:13:55.923Z,11.32
2022-10-28T08:16:24.107Z,11.41
2022-10-28T08:18:53.222Z,11.45
2022-10-28T08:21:21.382Z,11.54
2022-10-28T08:23:49.770Z,11.63
2022-10-28T08:26:17.785Z,11.69
2022-10-28T08:28:45.782Z,11.76
2022-10-28T08:31:13.612Z,11.83
2022-10-28T08:33:46.993Z,11.89
2022-10-28T08:36:16.766Z,11.94
2022-10-28T08:38:48.140Z,12.00
2022-10-28T08:41:44.968Z,12.05
2022-10-28T08:44:34.792Z,12.16
2022-10-28T08:47:14.633Z,12.24
2022-10-28T08:49:47.103Z,12.33
2022-10-28T08:52:52.962Z,12.43
2022-10-28T08:55:25.304Z,12.50
2022-10-28T08:57:57.701Z,12.58
2022-10-28T09:00:33.426Z,12.66
2022-10-28T09:03:17.454Z,12.75
2022-10-28T09:05:51.110Z,12.82
2022-10-28T09:08:30.945Z,12.88
2022-10-28T09:11:11.015Z,12.94
2022-10-28T09:13:57.198Z,13.03
2022-10-28T09:16:35.781Z,13.08
2022-10-28T09:19:42.191Z,13.16
2022-10-28T09:22:20.911Z,13.21
2022-10-28T09:24:53.582Z,13.28
2022-10-28T09:28:18.827Z,13.35
2022-10-28T09:31:06.911Z,13.46
2022-10-28T09:33:35.019Z,13.57
2022-10-28T09:36:12.953Z,13.65
2022-10-28T09:38:41.853Z,13.71
2022-10-28T09:41:25.798Z,13.79
2022-10-28T09:43:57.281Z,13.88
2022-10-28T09:46:33.221Z,13.96
2022-10-28T09:49:11.556Z,14.05
2022-10-28T09:51:52.777Z,14.14
2022-10-28T09:54:29.898Z,14.21
2022-10-28T09:56:57.855Z,14.23
2022-10-28T09:59:28.573Z,14.24
2022-10-28T10:01:56.764Z,14.24
2022-10-28T10:04:28.118Z,14.27
2022-10-28T10:07:02.746Z,14.28
2022-10-28T10:09:57.869Z,14.27
2022-10-28T10:12:27.191Z,14.29
2022-10-28T10:14:58.615Z,14.31
2022-10-28T10:17:39.993Z,14.36
2022-10-28T10:20:11.261Z,14.41
2022-10-28T10:22:41.642Z,14.45
2022-10-28T10:25:31.008Z,14.49
2022-10-28T10:28:06.182Z,14.51
2022-10-28T10:30:48.907Z,14.52
2022-10-28T10:33:23.714Z,14.51
2022-10-28T10:36:00.566Z,14.52
2022-10-28T10:38:29.652Z,14.54
2022-10-28T10:40:58.192Z,14.56
2022-10-28T10:43:34.046Z,14.58
2022-10-28T10:46:14.962Z,14.61
2022-10-28T10:48:43.450Z,14.61
2022-10-28T10:51:26.049Z,14.59
2022-10-28T10:54:00.830Z,14.56
2022-10-28T10:56:31.425Z,14.59
2022-10-28T10:59:02.809Z,14.59
2022-10-28T11:01:37.138Z,14.61
2022-10-28T11:04:07.635Z,14.63
2022-10-28T11:06:41.430Z,14.66
2022-10-28T11:09:27.613Z,14.70
2022-10-28T11:11:56.391Z,14.74
2022-10-28T11:14:29.338Z,14.74
2022-10-28T11:16:59.861Z,14.72
2022-10-28T11:19:31.771Z,14.70
2022-10-28T11:22:21.024Z,14.72
2022-10-28T11:25:03.993Z,14.73
2022-10-28T11:27:55.327Z,14.76
2022-10-28T11:30:50.579Z,14.79
2022-10-28T11:33:30.177Z,14.87
2022-10-28T11:36:19.999Z,14.91
2022-10-28T11:39:06.668Z,14.96
2022-10-28T11:41:59.590Z,15.03
2022-10-28T11:45:03.531Z,15.08
2022-10-28T11:47:37.240Z,15.10
2022-10-28T11:50:10.810Z,15.16
2022-10-28T11:53:00.376Z,15.20
2022-10-28T11:55:37.409Z,15.24
2022-10-28T11:58:23.072Z,15.28
2022-10-28T12:01:00.055Z,15.32
2022-10-28T12:03:39.082Z,15.34
2022-10-28T12:06:37.764Z,15.33
2022-10-28T12:09:50.204Z,15.34
2022-10-28T12:12:41.342Z,15.36
2022-10-28T12:15:24.587Z,15.40
2022-10-28T12:17:55.799Z,15.43
2022-10-28T12:20:30.013Z,15.48
2022-10-28T12:23:02.474Z,15.53
2022-10-28T12:25:35.845Z,15.58
2022-10-28T12:28:11.699Z,15.60
2022-10-28T12:30:43.484Z,15.61
2022-10-28T12:33:14.150Z,15.66
2022-10-28T12:36:06.719Z,15.68
2022-10-28T12:38:43.192Z,15.71
2022-10-28T12:41:21.291Z,15.77
2022-10-28T12:43:54.223Z,15.76
2022-10-28T12:46:40.885Z,15.75
2022-10-28T12:49:31.984Z,15.76
2022-10-28T12:52:06.179Z,15.75
2022-10-28T12:54:53.575Z,15.78
2022-10-28T12:57:25.350Z,15.83
2022-10-28T13:00:22.814Z,15.84
2022-10-28T13:03:01.850Z,15.85
2022-10-28T13:05:54.089Z,15.84
2022-10-28T13:08:45.113Z,15.78
2022-10-28T13:11:47.554Z,15.77
2022-10-28T13:14:24.462Z,15.71
2022-10-28T13:16:54.965Z,15.70
2022-10-28T13:19:37.730Z,15.66
2022-10-28T13:22:11.520Z,15.63
2022-10-28T13:25:21.470Z,15.61
2022-10-28T13:27:58.838Z,15.61
2022-10-28T13:30:28.264Z,15.58
2022-10-28T13:33:08.720Z,15.50
2022-10-28T13:35:37.112Z,15.50
2022-10-28T13:38:10.959Z,15.48
2022-10-28T13:40:38.606Z,15.45
2022-10-28T13:43:20.953Z,15.43
2022-10-28T13:45:55.206Z,15.39
2022-10-28T13:48:29.141Z,15.37
2022-10-28T13:51:09.432Z,15.33
2022-10-28T13:53:38.668Z,15.30
2022-10-28T13:56:27.805Z,15.32
2022-10-28T13:58:59.838Z,15.27
2022-10-28T14:02:01.569Z,15.29
2022-10-28T14:04:38.462Z,15.25
2022-10-28T14:07:12.729Z,15.25
2022-10-28T14:09:41.458Z,15.25
2022-10-28T14:12:17.390Z,15.19
2022-10-28T14:14:52.493Z,15.16
2022-10-28T14:17:36.921Z,15.14
2022-10-28T14:20:19.916Z,15.03
2022-10-28T14:22:48.210Z,14.97
2022-10-28T14:25:40.476Z,14.93
2022-10-28T14:28:27.163Z,14.85
2022-10-28T14:31:33.062Z,14.78
2022-10-28T14:34:00.829Z,14.75
2022-10-28T14:36:48.956Z,14.73
2022-10-28T14:39:59.220Z,14.71
2022-10-28T14:42:34.772Z,14.68
2022-10-28T14:45:30.599Z,14.62
2022-10-28T14:48:27.588Z,14.59
2022-10-28T14:50:57.364Z,14.53
2022-10-28T14:53:30.435Z,14.51
2022-10-28T14:56:10.847Z,14.50
2022-10-28T14:58:43.868Z,14.46
2022-10-28T15:01:18.003Z,14.43
2022-10-28T15:03:48.623Z,14.39
2022-10-28T15:06:39.444Z,14.38
2022-10-28T15:09:27.477Z,14.31
2022-10-28T15:12:01.727Z,14.28
2022-10-28T15:14:40.607Z,14.25
2022-10-28T15:17:13.202Z,14.25
2022-10-28T15:19:41.910Z,14.20
2022-10-28T15:22:28.255Z,14.18
2022-10-28T15:25:04.460Z,14.15
2022-10-28T15:27:36.472Z,14.09
2022-10-28T15:30:28.090Z,14.04
2022-10-28T15:33:32.086Z,13.99
2022-10-28T15:36:17.560Z,13.89
2022-10-28T15:38:49.784Z,13.82
2022-10-28T15:41:26.434Z,13.77
2022-10-28T15:44:02.804Z,13.73
2022-10-28T15:46:33.543Z,13.67
2022-10-28T15:49:01.843Z,13.63
2022-10-28T15:51:29.946Z,13.56
2022-10-28T15:54:11.840Z,13.49
2022-10-28T15:56:57.845Z,13.46
2022-10-28T15:59:26.698Z,13.41
2022-10-28T16:01:59.271Z,13.31
2022-10-28T16:04:39.494Z,13.27
2022-10-28T16:07:08.914Z,13.24
2022-10-28T16:09:48.825Z,13.18
2022-10-28T16:12:21.040Z,13.13
2022-10-28T16:14:56.293Z,13.07
2022-10-28T16:17:36.348Z,13.02
2022-10-28T16:20:15.455Z,12.96
2022-10-28T16:22:46.774Z,12.83
2022-10-28T16:25:20.678Z,12.66
2022-10-28T16:27:50.093Z,12.56
2022-10-28T16:30:18.232Z,12.42
2022-10-28T16:32:48.871Z,12.28
2022-10-28T16:35:21.951Z,12.17
2022-10-28T16:37:55.140Z,12.07
2022-10-28T16:43:17.360Z,11.59
2022-10-28T16:45:45.676Z,11.46
2022-10-28T16:48:16.200Z,11.35
2022-10-28T16:50:49.272Z,11.24
2022-10-28T16:53:18.072Z,11.18
2022-10-28T16:55:46.295Z,11.12
2022-10-28T16:58:14.160Z,11.04
2022-10-28T17:00:43.008Z,11.04
2022-10-28T17:03:17.053Z,11.03
2022-10-28T17:05:45.318Z,11.04
2022-10-28T17:08:13.611Z,10.98
2022-10-28T17:10:42.708Z,10.96
2022-10-28T17:13:14.886Z,10.98
2022-10-28T17:15:43.540Z,10.99
2022-10-28T17:18:14.979Z,10.99
2022-10-28T17:20:42.800Z,10.98
2022-10-28T17:23:10.673Z,10.97
2022-10-28T17:25:38.484Z,10.97
2022-10-28T17:28:06.410Z,10.95
2022-10-28T17:30:34.400Z,10.92
2022-10-28T17:33:02.553Z,10.87
2022-10-28T17:35:30.351Z,10.86
2022-10-28T17:37:58.664Z,10.87
2022-10-28T17:40:26.502Z,10.92
2022-10-28T17:42:58.279Z,10.95
2022-10-28T17:45:26.305Z,10.96
2022-10-28T17:47:54.196Z,10.98
2022-10-28T17:50:22.078Z,10.91
2022-10-28T17:52:49.957Z,10.83
2022-10-28T17:55:17.681Z,10.82
2022-10-28T17:57:45.646Z,10.84
2022-10-28T18:00:14.159Z,10.82
2022-10-28T18:02:42.073Z,10.85
2022-10-28T18:05:10.125Z,10.88
2022-10-28T18:07:37.962Z,10.89
2022-10-28T18:10:06.516Z,10.89
2022-10-28T18:12:34.249Z,10.93
2022-10-28T18:15:02.106Z,10.93
2022-10-28T18:17:29.903Z,10.95
2022-10-28T18:20:01.511Z,10.92
2022-10-28T18:22:29.283Z,10.91
2022-10-28T18:24:57.077Z,10.85
2022-10-28T18:27:24.882Z,10.83
2022-10-28T18:29:52.737Z,10.86
2022-10-28T18:32:20.646Z,10.83
2022-10-28T18:34:48.578Z,10.80
2022-10-28T18:37:16.357Z,10.78
2022-10-28T18:39:44.374Z,10.76
2022-10-28T18:42:13.092Z,10.74
2022-10-28T18:44:41.820Z,10.67
2022-10-28T18:47:09.505Z,10.56
2022-10-28T18:49:37.321Z,10.53
2022-10-28T18:52:05.082Z,10.50
2022-10-28T18:54:34.189Z,10.51
2022-10-28T18:57:02.033Z,10.50
2022-10-28T18:59:29.758Z,10.53
2022-10-28T19:01:57.896Z,10.59
2022-10-28T19:04:25.798Z,10.61
2022-10-28T19:06:53.731Z,10.58
2022-10-28T19:09:21.620Z,10.49
2022-10-28T19:11:49.340Z,10.49
2022-10-28T19:14:17.127Z,10.47
2022-10-28T19:16:44.989Z,10.41
2022-10-28T19:19:12.723Z,10.39
2022-10-28T19:21:40.543Z,10.39
2022-10-28T19:24:08.645Z,10.38
2022-10-28T19:26:36.566Z,10.33
2022-10-28T19:29:04.740Z,10.30
2022-10-28T19:31:36.117Z,10.29
2022-10-28T19:34:03.871Z,10.30
2022-10-28T19:36:31.671Z,10.21
2022-10-28T19:38:59.642Z,10.15
2022-10-28T19:41:29.226Z,10.16
2022-10-28T19:43:59.379Z,10.10
2022-10-28T19:46:30.961Z,10.04
2022-10-28T19:49:00.648Z,10.05
2022-10-28T19:51:31.459Z,10.13
2022-10-28T19:54:01.314Z,10.16
2022-10-28T19:56:31.671Z,10.19
2022-10-28T19:59:02.275Z,10.15
2022-10-28T20:01:35.885Z,10.14
2022-10-28T20:04:04.462Z,10.15
2022-10-28T20:06:35.049Z,10.12
2022-10-28T20:09:03.590Z,10.11
2022-10-28T20:11:33.969Z,10.06
2022-10-28T20:14:04.525Z,10.01
2022-10-28T20:16:33.250Z,9.98
2022-10-28T20:19:01.036Z,9.93
2022-10-28T20:21:30.940Z,9.96
2022-10-28T20:23:58.887Z,9.99
2022-10-28T20:26:32.014Z,9.99
2022-10-28T20:29:02.915Z,9.98
2022-10-28T20:31:32.203Z,9.96
2022-10-28T20:34:03.883Z,9.97
2022-10-28T20:36:40.147Z,10.00
2022-10-28T20:39:12.997Z,10.05
2022-10-28T20:41:41.944Z,10.11
2022-10-28T20:44:09.932Z,10.16
2022-10-28T20:46:38.727Z,10.22
2022-10-28T20:49:08.711Z,10.25
2022-10-28T20:51:37.052Z,10.25
2022-10-28T20:54:05.150Z,10.26
2022-10-28T20:56:36.246Z,10.30
2022-10-28T20:59:05.009Z,10.32
2022-10-28T21:01:41.022Z,10.32
2022-10-28T21:04:10.852Z,10.33
2022-10-28T21:06:40.005Z,10.34
2022-10-28T21:09:08.886Z,10.34
2022-10-28T21:11:36.709Z,10.36
2022-10-28T21:14:04.404Z,10.35
2022-10-28T21:16:33.330Z,10.36
2022-10-28T21:19:01.325Z,10.38
2022-10-28T21:21:30.414Z,10.39
2022-10-28T21:24:00.719Z,10.45
2022-10-28T21:26:28.698Z,10.42
2022-10-28T21:28:56.594Z,10.41
2022-10-28T21:31:25.079Z,10.43
2022-10-28T21:33:53.476Z,10.48
2022-10-28T21:36:22.312Z,10.49
2022-10-28T21:38:55.429Z,10.45
2022-10-28T21:41:24.300Z,10.49
2022-10-28T21:43:54.335Z,10.47
2022-10-28T21:46:23.618Z,10.44
2022-10-28T21:48:52.734Z,10.44
2022-10-28T21:51:20.652Z,10.47
2022-10-28T21:53:48.400Z,10.50
2022-10-28T21:56:19.321Z,10.51
2022-10-28T21:58:49.371Z,10.51
2022-10-28T22:01:22.372Z,10.50
2022-10-28T22:03:51.903Z,10.48
2022-10-28T22:06:19.704Z,10.45
2022-10-28T22:08:47.660Z,10.42
2022-10-28T22:11:18.019Z,10.43
2022-10-28T22:13:46.178Z,10.41
2022-10-28T22:16:16.186Z,10.43
2022-10-28T22:18:44.597Z,10.43
2022-10-28T22:21:15.447Z,10.43
2022-10-28T22:23:43.707Z,10.43
2022-10-28T22:26:14.789Z,10.43
2022-10-28T22:28:43.033Z,10.44
2022-10-28T22:31:15.028Z,10.45
2022-10-28T22:33:43.419Z,10.53
2022-10-28T22:36:13.733Z,10.56
2022-10-28T22:38:42.212Z,10.54
2022-10-28T22:41:21.801Z,10.53
2022-10-28T22:43:54.668Z,10.53
2022-10-28T22:46:24.361Z,10.50
2022-10-28T22:48:53.231Z,10.46
2022-10-28T22:51:21.682Z,10.40
2022-10-28T22:53:50.209Z,10.39
2022-10-28T22:56:23.878Z,10.37
2022-10-28T22:59:00.303Z,10.35
2022-10-28T23:01:29.106Z,10.34
2022-10-28T23:03:57.328Z,10.40
2022-10-28T23:06:26.632Z,10.42
2022-10-28T23:08:54.871Z,10.41
2022-10-28T23:11:23.129Z,10.40
2022-10-28T23:13:53.194Z,10.37
2022-10-28T23:16:22.194Z,10.31
2022-10-28T23:18:52.709Z,10.29
2022-10-28T23:21:23.073Z,10.32
2022-10-28T23:23:55.722Z,10.32
2022-10-28T23:26:24.312Z,10.30
2022-10-28T23:28:53.938Z,10.28
2022-10-28T23:31:22.802Z,10.27
2022-10-28T23:33:50.907Z,10.28
2022-10-28T23:36:18.715Z,10.29
2022-10-28T23:38:46.632Z,10.27
2022-10-28T23:41:18.450Z,10.31
2022-10-28T23:43:48.766Z,10.31
2022-10-28T23:46:17.356Z,10.28
2022-10-28T23:48:45.297Z,10.23
2022-10-28T23:51:13.063Z,10.20
2022-10-28T23:53:40.886Z,10.22
2022-10-28T23:56:08.942Z,10.19
2022-10-28T23:58:36.745Z,10.22
